Terminal Aerodrome Forecast
Issued by NWS Melbourne, FL

Home | Current Version | Previous Version | Text Only | Print | Product List | Glossary On
Versions: 1 2 3 4 5 6 7 8 9 10 11 12 13 14
000
FTUS42 KMLB 220700 AAA
TAFVRB
TAF AMD
KVRB 220759Z 2208/2306 VRB03KT P6SM VCSH FEW020 SCT250
      TEMPO 2208/2212 SHRA BKN020
     FM221400 18006KT P6SM VCSH SCT025 SCT050 SCT250
     FM221700 10009KT P6SM VCTS SCT030CB BKN050
      TEMPO 2217/2219 3SM TSRA BKN030CB
     FM230000 17005KT P6SM FEW020 SCT100 OVC250=

USA.gov is the U.S. government's official web portal to all federal, state and local government web resources and services.